Time;durP1;ratioP1;P1;durP2;ratioP2;P2;SDS_P1;SDS_P2;PMS_P1;PMS_P2;Temp;Humidity;BMP_temperature;BMP_pressure;BME280_temperature;BME280_humidity;BME280_pressure;Samples;Min_cycle;Max_cycle;Signal;HPM_P1;HPM_P2
2023/09/26 00:01:41;;;;;;;0.80;0.80;;;15.20;54.30;;;;;;5035924;28;20401;-63
2023/09/26 00:04:07;;;;;;;0.80;0.80;;;15.20;51.00;;;;;;5036043;28;20045;-63
2023/09/26 00:06:33;;;;;;;1.70;0.75;;;15.20;54.30;;;;;;5036078;28;20037;-63
2023/09/26 00:08:58;;;;;;;1.05;0.95;;;15.20;51.80;;;;;;5035762;28;20416;-63
2023/09/26 00:11:24;;;;;;;1.10;1.00;;;15.20;50.40;;;;;;5036029;28;20083;-63
2023/09/26 00:13:50;;;;;;;1.15;1.05;;;15.20;51.50;;;;;;5017880;28;20045;-63
2023/09/26 00:16:15;;;;;;;0.80;0.70;;;15.20;50.90;;;;;;5035757;28;20512;-63
2023/09/26 00:18:42;;;;;;;0.85;0.85;;;15.20;51.20;;;;;;5035833;28;20076;-63
2023/09/26 00:21:10;;;;;;;1.23;0.93;;;15.20;49.30;;;;;;5035712;28;20052;-63
2023/09/26 00:23:36;;;;;;;1.30;1.00;;;15.20;50.20;;;;;;5035504;28;20052;-63
2023/09/26 00:26:03;;;;;;;1.10;1.00;;;15.20;48.40;;;;;;5035686;28;20025;-63
2023/09/26 00:28:29;;;;;;;0.95;0.90;;;15.10;47.40;;;;;;5017625;28;20056;-62
2023/09/26 00:31:03;;;;;;;0.77;0.77;;;15.20;48.70;;;;;;5035326;28;20038;-63
2023/09/26 00:33:29;;;;;;;1.13;0.80;;;15.20;52.00;;;;;;5035160;28;20052;-60
2023/09/26 00:35:55;;;;;;;1.15;0.90;;;15.20;51.20;;;;;;5035531;28;20038;-61
2023/09/26 00:38:21;;;;;;;1.00;1.00;;;15.20;49.40;;;;;;5035423;28;20459;-61
2023/09/26 00:40:46;;;;;;;0.93;0.93;;;15.60;51.60;;;;;;5035119;28;20041;-61
2023/09/26 00:43:22;;;;;;;1.08;0.98;;;15.10;51.20;;;;;;5035674;28;20037;-60
2023/09/26 00:45:52;;;;;;;1.20;1.10;;;15.10;53.10;;;;;;5035349;28;20034;-61
2023/09/26 00:48:18;;;;;;;1.98;1.23;;;15.10;53.10;;;;;;5035317;28;20045;-61
2023/09/26 00:50:45;;;;;;;1.20;1.10;;;15.10;53.70;;;;;;5034969;28;20034;-61
2023/09/26 00:53:10;;;;;;;1.30;1.20;;;15.00;54.40;;;;;;5017211;28;20048;-61
2023/09/26 00:55:37;;;;;;;1.17;1.08;;;15.00;54.90;;;;;;5035178;28;20038;-61
2023/09/26 00:58:03;;;;;;;1.48;1.38;;;14.90;56.10;;;;;;5034828;28;20502;-60
2023/09/26 01:00:29;;;;;;;1.25;1.15;;;14.90;53.50;;;;;;5035061;28;20073;-60
2023/09/26 01:02:54;;;;;;;1.58;1.48;;;14.90;55.90;;;;;;5033531;28;20501;-61
2023/09/26 01:05:20;;;;;;;1.35;1.17;;;14.90;55.10;;;;;;5035041;28;20049;-66
2023/09/26 01:07:46;;;;;;;3.03;1.90;;;14.80;55.30;;;;;;5017011;28;20045;-66
2023/09/26 01:10:12;;;;;;;1.48;1.38;;;14.80;59.00;;;;;;5034610;28;20048;-66
2023/09/26 01:12:39;;;;;;;1.65;1.50;;;14.80;56.70;;;;;;5034584;28;20405;-66
2023/09/26 01:15:06;;;;;;;1.95;1.48;;;14.80;55.70;;;;;;5034716;28;20041;-66
2023/09/26 01:17:32;;;;;;;1.50;1.40;;;14.70;58.30;;;;;;5034322;28;20103;-66
2023/09/26 01:19:59;;;;;;;1.55;1.45;;;14.80;60.60;;;;;;5034702;28;20471;-66
2023/09/26 01:22:27;;;;;;;0.90;0.90;;;14.70;60.80;;;;;;5034384;28;20076;-67
2023/09/26 01:24:52;;;;;;;1.77;1.50;;;14.70;61.60;;;;;;5034543;28;20379;-66
2023/09/26 01:27:18;;;;;;;1.45;1.30;;;14.70;63.50;;;;;;5034396;28;20095;-67
2023/09/26 01:29:46;;;;;;;2.55;1.75;;;14.70;63.40;;;;;;5034480;28;20042;-66
2023/09/26 01:32:12;;;;;;;1.52;1.42;;;14.60;62.70;;;;;;5034136;28;20049;-66
2023/09/26 01:34:37;;;;;;;1.95;1.73;;;14.70;65.10;;;;;;5016655;28;20588;-66
2023/09/26 01:37:03;;;;;;;1.85;1.60;;;14.60;65.50;;;;;;5034286;28;20119;-66
2023/09/26 01:39:31;;;;;;;1.77;1.67;;;14.60;64.50;;;;;;5034344;28;20065;-66
2023/09/26 01:41:57;;;;;;;1.50;1.40;;;14.60;70.70;;;;;;5034290;28;20489;-67
2023/09/26 01:44:23;;;;;;;1.42;1.33;;;14.50;69.50;;;;;;5033772;28;20041;-67
2023/09/26 01:46:48;;;;;;;2.40;1.75;;;14.50;69.80;;;;;;5034067;28;20582;-66
2023/09/26 01:49:14;;;;;;;1.60;1.50;;;14.40;72.40;;;;;;5034156;28;20477;-66
2023/09/26 01:51:39;;;;;;;1.58;1.48;;;14.40;72.90;;;;;;5034071;28;20037;-66
2023/09/26 01:54:05;;;;;;;1.65;1.55;;;14.40;73.60;;;;;;5034035;28;20046;-66
2023/09/26 01:56:32;;;;;;;1.58;1.48;;;14.30;74.30;;;;;;5034055;28;20447;-66
2023/09/26 01:58:58;;;;;;;1.52;1.33;;;14.20;74.70;;;;;;5033567;28;20083;-66
2023/09/26 02:01:23;;;;;;;1.73;1.58;;;14.20;76.20;;;;;;5033884;28;20431;-66
2023/09/26 02:03:49;;;;;;;1.50;1.40;;;14.20;76.40;;;;;;5033903;28;20033;-66
2023/09/26 02:06:14;;;;;;;2.38;2.17;;;14.10;78.60;;;;;;5033858;28;20477;-66
2023/09/26 02:08:40;;;;;;;1.65;1.55;;;14.10;79.40;;;;;;5033815;28;20503;-66
2023/09/26 02:11:05;;;;;;;1.60;1.50;;;14.10;81.20;;;;;;5033416;28;20045;-66
2023/09/26 02:13:32;;;;;;;1.55;1.45;;;14.00;81.70;;;;;;5033708;28;20049;-67
2023/09/26 02:15:57;;;;;;;1.85;1.70;;;14.00;83.20;;;;;;5033373;28;20045;-62
2023/09/26 02:18:24;;;;;;;1.77;1.67;;;13.90;81.80;;;;;;5033555;28;20111;-62
2023/09/26 02:20:50;;;;;;;2.28;2.08;;;13.90;83.60;;;;;;5033601;28;20409;-62
2023/09/26 02:23:15;;;;;;;2.13;1.38;;;13.80;85.90;;;;;;5033547;28;20042;-62
2023/09/26 02:25:51;;;;;;;1.70;1.60;;;14.60;85.80;;;;;;5015602;28;20456;-62
2023/09/26 02:28:17;;;;;;;1.67;1.58;;;13.80;85.50;;;;;;5033490;28;20392;-62
2023/09/26 02:30:43;;;;;;;2.30;1.48;;;13.70;86.30;;;;;;5033441;28;20068;-62
2023/09/26 02:33:08;;;;;;;2.58;1.73;;;13.70;86.20;;;;;;5033382;28;20049;-62
2023/09/26 02:35:34;;;;;;;1.90;1.67;;;13.60;89.10;;;;;;5033415;28;20046;-62
2023/09/26 02:37:59;;;;;;;1.50;1.40;;;13.60;89.90;;;;;;5032966;28;20060;-62
2023/09/26 02:40:25;;;;;;;2.25;1.77;;;13.60;90.80;;;;;;5033021;28;20038;-62
2023/09/26 02:42:51;;;;;;;2.13;1.73;;;13.60;91.40;;;;;;5033305;28;20081;-62
2023/09/26 02:45:17;;;;;;;2.30;1.80;;;13.50;90.60;;;;;;5032881;28;20050;-62
2023/09/26 02:47:43;;;;;;;1.75;1.65;;;13.50;90.50;;;;;;5033279;28;20033;-67
2023/09/26 02:50:10;;;;;;;1.80;1.70;;;13.50;91.00;;;;;;5033192;28;20122;-62
2023/09/26 02:52:37;;;;;;;2.03;1.83;;;13.50;91.60;;;;;;5015541;28;20052;-62
2023/09/26 02:55:03;;;;;;;1.65;1.55;;;13.40;92.00;;;;;;5033248;28;20112;-60
2023/09/26 02:57:29;;;;;;;1.63;1.52;;;13.40;91.90;;;;;;5032619;28;20050;-60
2023/09/26 02:59:54;;;;;;;1.50;1.40;;;13.40;92.10;;;;;;5033072;28;20038;-60
2023/09/26 03:02:20;;;;;;;1.60;1.50;;;13.40;92.60;;;;;;5033032;28;20041;-60
2023/09/26 03:04:49;;;;;;;1.83;1.70;;;13.30;93.00;;;;;;5033019;28;20496;-60
2023/09/26 03:07:15;;;;;;;1.80;1.65;;;13.30;93.10;;;;;;5015064;28;20041;-60
2023/09/26 03:09:41;;;;;;;1.70;1.60;;;13.70;93.20;;;;;;5015049;28;20079;-60
2023/09/26 03:12:07;;;;;;;1.88;1.77;;;13.20;93.70;;;;;;5032602;28;20057;-60
2023/09/26 03:14:32;;;;;;;1.73;1.63;;;13.20;94.90;;;;;;5032932;28;20079;-61
2023/09/26 03:16:58;;;;;;;1.52;1.42;;;13.10;94.80;;;;;;5032616;28;20049;-61
2023/09/26 03:19:23;;;;;;;1.70;1.60;;;13.10;94.90;;;;;;5032874;28;20654;-60
2023/09/26 03:21:50;;;;;;;1.50;1.40;;;13.10;94.60;;;;;;5014900;28;20042;-60
2023/09/26 03:24:16;;;;;;;1.73;1.63;;;13.10;95.00;;;;;;5015149;28;20045;-60
2023/09/26 03:26:42;;;;;;;2.00;1.70;;;13.00;95.20;;;;;;5032635;28;20038;-63
2023/09/26 03:29:07;;;;;;;1.90;1.70;;;12.90;95.60;;;;;;5032837;28;20095;-65
2023/09/26 03:31:34;;;;;;;1.70;1.60;;;13.00;95.30;;;;;;5014785;28;20077;-63
2023/09/26 03:34:00;;;;;;;1.70;1.58;;;12.90;94.60;;;;;;5032735;28;20042;-63
2023/09/26 03:36:25;;;;;;;2.10;2.00;;;12.80;94.30;;;;;;5032431;28;20103;-63
2023/09/26 03:38:51;;;;;;;1.92;1.73;;;12.90;93.70;;;;;;5032358;28;20045;-63
2023/09/26 03:41:17;;;;;;;2.08;1.88;;;12.80;93.40;;;;;;5015025;28;20049;-63
2023/09/26 03:43:42;;;;;;;2.35;2.13;;;12.80;93.20;;;;;;5032406;28;20041;-63
2023/09/26 03:46:08;;;;;;;2.15;1.90;;;12.90;96.00;;;;;;5032309;28;20042;-63
2023/09/26 03:48:35;;;;;;;2.25;2.05;;;12.70;94.10;;;;;;5032677;28;20077;-63
2023/09/26 03:51:08;;;;;;;2.15;2.00;;;12.60;93.30;;;;;;5032609;28;20107;-63
2023/09/26 03:53:34;;;;;;;1.98;1.83;;;;;;;;;;5032626;28;20555;-63
2023/09/26 03:56:00;;;;;;;1.70;1.60;;;12.60;93.10;;;;;;5032564;28;20393;-63
2023/09/26 03:58:26;;;;;;;2.10;1.90;;;12.60;93.40;;;;;;5032535;28;20045;-63
2023/09/26 04:00:51;;;;;;;1.63;1.52;;;12.50;94.00;;;;;;5032221;28;20041;-63
2023/09/26 04:03:17;;;;;;;2.13;1.92;;;12.50;95.00;;;;;;5032498;28;20108;-63
2023/09/26 04:05:47;;;;;;;2.30;2.10;;;12.50;95.00;;;;;;5032623;28;20041;-61
2023/09/26 04:08:14;;;;;;;2.17;2.03;;;12.40;94.50;;;;;;5033556;28;20095;-62
2023/09/26 04:10:40;;;;;;;2.08;1.80;;;12.40;94.50;;;;;;5035735;28;20041;-62
2023/09/26 04:13:05;;;;;;;1.75;1.65;;;12.50;94.10;;;;;;5035957;28;20041;-62
2023/09/26 04:15:31;;;;;;;2.13;1.90;;;12.40;95.40;;;;;;5035954;28;20095;-62
2023/09/26 04:17:57;;;;;;;2.30;2.10;;;12.40;95.20;;;;;;5035397;28;20382;-61
2023/09/26 04:20:23;;;;;;;1.92;1.83;;;12.40;94.90;;;;;;5035855;28;20497;-61
2023/09/26 04:22:48;;;;;;;1.73;1.63;;;12.30;94.80;;;;;;5035828;28;20029;-62
2023/09/26 04:25:14;;;;;;;2.00;1.90;;;12.30;95.30;;;;;;5035736;28;20040;-62
2023/09/26 04:27:40;;;;;;;1.85;1.75;;;12.30;95.30;;;;;;5035382;28;20037;-64
2023/09/26 04:30:08;;;;;;;1.90;1.80;;;12.30;95.10;;;;;;5035394;28;20050;-62
2023/09/26 04:32:34;;;;;;;2.15;1.95;;;12.30;94.80;;;;;;5035645;28;20055;-62
2023/09/26 04:34:59;;;;;;;1.80;1.70;;;12.30;95.90;;;;;;5035566;28;20112;-62
2023/09/26 04:37:25;;;;;;;1.83;1.73;;;12.30;95.40;;;;;;5035292;28;20103;-66
2023/09/26 04:39:50;;;;;;;1.70;1.60;;;12.30;94.50;;;;;;5035511;28;20049;-65
2023/09/26 04:42:16;;;;;;;1.75;1.65;;;12.30;94.50;;;;;;5035155;28;20073;-66
2023/09/26 04:44:42;;;;;;;1.60;1.50;;;12.30;94.00;;;;;;5035347;28;20481;-66
2023/09/26 04:47:07;;;;;;;1.85;1.75;;;12.20;94.70;;;;;;5035006;28;20037;-65
2023/09/26 04:49:34;;;;;;;2.33;2.13;;;12.30;95.40;;;;;;5035352;28;20037;-67
2023/09/26 04:52:00;;;;;;;1.85;1.75;;;12.20;94.70;;;;;;5035250;28;20045;-66
2023/09/26 04:54:25;;;;;;;1.42;1.33;;;12.30;94.00;;;;;;5035073;28;20056;-67
2023/09/26 04:56:51;;;;;;;1.80;1.70;;;12.30;93.80;;;;;;5035206;28;20056;-65
2023/09/26 04:59:17;;;;;;;1.80;1.70;;;12.30;93.80;;;;;;5034640;28;20045;-66
2023/09/26 05:01:42;;;;;;;1.67;1.58;;;12.30;92.70;;;;;;5035109;28;20038;-66
2023/09/26 05:04:08;;;;;;;1.58;1.48;;;12.30;91.80;;;;;;5035024;28;20116;-66
2023/09/26 05:06:34;;;;;;;2.35;2.15;;;12.20;90.90;;;;;;5034963;28;20037;-66
2023/09/26 05:08:59;;;;;;;1.65;1.50;;;12.40;90.10;;;;;;5034929;28;20045;-66
2023/09/26 05:11:27;;;;;;;1.80;1.70;;;12.30;89.60;;;;;;5034622;28;20587;-66
2023/09/26 05:13:53;;;;;;;1.73;1.63;;;12.30;88.10;;;;;;5034841;28;20453;-66
2023/09/26 05:16:19;;;;;;;1.88;1.77;;;12.30;89.30;;;;;;5034707;28;20107;-62
2023/09/26 05:18:44;;;;;;;1.70;1.60;;;12.30;89.10;;;;;;5034121;28;20121;-62
2023/09/26 05:21:11;;;;;;;1.52;1.27;;;12.30;88.80;;;;;;5033782;28;20030;-61
2023/09/26 05:23:37;;;;;;;1.85;1.70;;;12.30;89.10;;;;;;5034616;28;20451;-62
2023/09/26 05:26:07;;;;;;;1.55;1.45;;;12.30;90.50;;;;;;5034578;28;20045;-62
2023/09/26 05:28:33;;;;;;;1.70;1.60;;;12.30;90.60;;;;;;5034607;28;20099;-62
2023/09/26 05:30:58;;;;;;;1.60;1.50;;;12.30;89.30;;;;;;5034515;28;20610;-62
2023/09/26 05:33:24;;;;;;;1.70;1.55;;;12.30;89.50;;;;;;5034390;28;20041;-64
2023/09/26 05:35:49;;;;;;;1.73;1.63;;;12.30;91.00;;;;;;5034382;28;20095;-62
2023/09/26 05:38:15;;;;;;;1.92;1.83;;;12.30;90.70;;;;;;5034270;28;20117;-62
2023/09/26 05:40:40;;;;;;;2.25;2.05;;;12.30;90.70;;;;;;5034311;28;20473;-62
2023/09/26 05:43:06;;;;;;;2.05;1.85;;;12.30;90.40;;;;;;5034214;28;20493;-62
2023/09/26 05:45:32;;;;;;;1.40;1.30;;;12.30;90.00;;;;;;5033912;28;20041;-62
2023/09/26 05:47:58;;;;;;;1.95;1.73;;;12.40;90.00;;;;;;5016310;28;20041;-60
2023/09/26 05:50:23;;;;;;;1.75;1.65;;;12.40;89.90;;;;;;5034070;28;20049;-60
2023/09/26 05:52:49;;;;;;;1.83;1.73;;;12.60;90.20;;;;;;5034067;28;20044;-60
2023/09/26 05:55:15;;;;;;;1.55;1.45;;;12.30;89.10;;;;;;5033997;28;20538;-60
2023/09/26 05:57:40;;;;;;;1.77;1.45;;;12.30;88.20;;;;;;5033873;28;20045;-61
2023/09/26 06:00:12;;;;;;;1.60;1.50;;;12.30;89.60;;;;;;5033854;28;20477;-61
2023/09/26 06:02:38;;;;;;;2.10;2.00;;;12.30;91.10;;;;;;5033940;28;20073;-60
2023/09/26 06:05:04;;;;;;;1.92;1.75;;;12.30;90.00;;;;;;5033610;28;20088;-59
2023/09/26 06:07:30;;;;;;;1.85;1.75;;;12.40;88.80;;;;;;5033755;28;20057;-62
2023/09/26 06:09:56;;;;;;;1.48;1.38;;;12.40;87.20;;;;;;5033737;28;20483;-61
2023/09/26 06:12:22;;;;;;;2.00;1.90;;;12.40;87.80;;;;;;5033391;28;20098;-61
2023/09/26 06:14:47;;;;;;;1.92;1.83;;;12.50;86.70;;;;;;5033692;28;20041;-61
2023/09/26 06:17:13;;;;;;;1.92;1.83;;;12.50;86.10;;;;;;5033093;28;20505;-61
2023/09/26 06:19:39;;;;;;;3.33;3.03;;;12.50;86.80;;;;;;5033531;28;20047;-60
2023/09/26 06:22:05;;;;;;;2.28;2.08;;;12.50;88.50;;;;;;5033489;28;20037;-60
2023/09/26 06:24:31;;;;;;;2.13;1.92;;;12.40;89.70;;;;;;5033415;28;20060;-61
2023/09/26 06:26:57;;;;;;;1.90;1.80;;;12.60;88.80;;;;;;5015701;28;20115;-63
2023/09/26 06:29:22;;;;;;;2.00;1.83;;;12.60;86.60;;;;;;5033389;28;20073;-63
2023/09/26 06:31:48;;;;;;;1.80;1.70;;;12.70;86.40;;;;;;5032710;28;20124;-63
2023/09/26 06:34:14;;;;;;;1.90;1.80;;;12.70;86.80;;;;;;5033306;28;20040;-63
2023/09/26 06:36:39;;;;;;;1.98;1.88;;;12.80;86.60;;;;;;5033327;28;20489;-63
2023/09/26 06:39:05;;;;;;;1.75;1.58;;;12.80;86.90;;;;;;5033235;28;20041;-63
2023/09/26 06:41:30;;;;;;;1.90;1.80;;;12.90;83.80;;;;;;5033227;28;20045;-64
2023/09/26 06:43:56;;;;;;;1.75;1.65;;;12.90;78.80;;;;;;5033265;28;20034;-64
2023/09/26 06:46:22;;;;;;;1.52;1.42;;;13.00;78.70;;;;;;5033223;28;20532;-64
2023/09/26 06:48:47;;;;;;;1.55;1.45;;;13.00;78.10;;;;;;5033257;28;20099;-64
2023/09/26 06:51:13;;;;;;;1.60;1.50;;;13.00;80.00;;;;;;5033168;28;20041;-64
2023/09/26 06:53:38;;;;;;;1.85;1.73;;;13.10;80.70;;;;;;5033141;28;20507;-66
2023/09/26 06:56:06;;;;;;;1.38;1.27;;;13.20;78.70;;;;;;5032845;28;20044;-64
2023/09/26 06:58:32;;;;;;;1.92;1.83;;;13.30;75.20;;;;;;5033076;28;20457;-64
2023/09/26 07:00:58;;;;;;;1.60;1.50;;;13.50;74.20;;;;;;5033074;28;20033;-64
2023/09/26 07:03:27;;;;;;;1.90;1.80;;;13.40;74.10;;;;;;5033035;28;20039;-63
2023/09/26 07:05:53;;;;;;;2.40;2.20;;;13.50;71.90;;;;;;5033090;28;20049;-63
2023/09/26 07:08:18;;;;;;;1.67;1.58;;;13.50;71.50;;;;;;5033051;28;20120;-64
2023/09/26 07:10:44;;;;;;;1.88;1.77;;;13.60;68.30;;;;;;5032682;28;20041;-63
2023/09/26 07:13:10;;;;;;;1.60;1.50;;;13.70;68.40;;;;;;5032964;28;20040;-64
2023/09/26 07:15:35;;;;;;;1.80;1.70;;;13.80;64.50;;;;;;5032926;28;20034;-64
2023/09/26 07:18:06;;;;;;;1.50;1.40;;;13.90;57.90;;;;;;5032450;28;20096;-64
2023/09/26 07:20:33;;;;;;;;;;;14.00;57.20;;;;;;5033373;28;20033;-64
2023/09/26 07:22:59;;;;;;;1.98;1.70;;;14.10;55.30;;;;;;5032879;28;20289;-64
2023/09/26 07:25:25;;;;;;;1.70;1.60;;;14.20;50.90;;;;;;5015169;28;20048;-64
2023/09/26 07:27:51;;;;;;;1.60;1.50;;;14.40;53.80;;;;;;5032862;28;20053;-64
2023/09/26 07:30:17;;;;;;;2.08;1.38;;;14.50;54.30;;;;;;5032803;28;20213;-64
2023/09/26 07:32:43;;;;;;;1.92;1.83;;;14.60;50.90;;;;;;5032716;28;20049;-64
2023/09/26 07:35:09;;;;;;;1.52;1.42;;;14.70;45.10;;;;;;5032730;28;20041;-64
2023/09/26 07:37:34;;;;;;;1.83;1.70;;;14.80;45.90;;;;;;5032814;28;20044;-61
2023/09/26 07:40:03;;;;;;;2.15;1.52;;;14.90;45.60;;;;;;5032748;28;20041;-63
2023/09/26 07:42:28;;;;;;;1.70;1.60;;;14.90;41.50;;;;;;5032725;28;20042;-61
2023/09/26 07:44:58;;;;;;;1.52;1.42;;;15.00;35.10;;;;;;5036478;28;20042;-61
2023/09/26 07:47:24;;;;;;;1.77;1.67;;;15.00;32.10;;;;;;5036480;28;20428;-61
2023/09/26 07:49:49;;;;;;;2.22;1.55;;;15.20;26.00;;;;;;5036196;28;20124;-61
2023/09/26 07:52:15;;;;;;;1.30;1.20;;;15.20;28.40;;;;;;5036388;28;20124;-61
2023/09/26 07:54:40;;;;;;;1.58;1.48;;;15.20;16.20;;;;;;5036391;28;20037;-61
2023/09/26 07:57:06;;;;;;;1.75;1.50;;;15.30;20.80;;;;;;5036248;28;20069;-61
2023/09/26 07:59:31;;;;;;;1.52;1.42;;;15.40;20.20;;;;;;5035808;28;20037;-61
2023/09/26 08:01:57;;;;;;;1.50;1.40;;;15.50;16.40;;;;;;5036217;28;20037;-61
2023/09/26 08:04:23;;;;;;;1.73;1.63;;;15.60;22.10;;;;;;5036122;28;20067;-61
2023/09/26 08:06:48;;;;;;;1.52;1.42;;;15.70;14.50;;;;;;5035833;28;20615;-61
2023/09/26 08:09:15;;;;;;;1.33;1.23;;;15.90;1.00;;;;;;5035989;28;20042;-61
2023/09/26 08:11:41;;;;;;;1.83;1.33;;;16.00;1.00;;;;;;5035720;28;20049;-61
2023/09/26 08:14:07;;;;;;;1.38;1.23;;;16.10;1.00;;;;;;5018186;28;20059;-61
2023/09/26 08:16:33;;;;;;;1.35;1.25;;;16.10;1.00;;;;;;5035506;28;20061;-61
2023/09/26 08:18:58;;;;;;;1.40;1.30;;;16.20;1.00;;;;;;5017563;28;20445;-62
2023/09/26 08:21:26;;;;;;;1.63;1.35;;;16.20;1.00;;;;;;5035684;28;20113;-61
2023/09/26 08:23:52;;;;;;;1.70;1.30;;;16.30;1.00;;;;;;5035691;28;20392;-61
2023/09/26 08:26:19;;;;;;;1.38;1.27;;;16.30;1.00;;;;;;5035817;28;20112;-63
2023/09/26 08:28:45;;;;;;;1.55;1.45;;;16.30;1.00;;;;;;5035721;28;20040;-64
2023/09/26 08:31:15;;;;;;;1.35;1.25;;;16.40;1.00;;;;;;5035511;28;20042;-64
2023/09/26 08:33:43;;;;;;;1.50;1.40;;;16.40;1.00;;;;;;5035184;28;20125;-64
2023/09/26 08:36:19;;;;;;;1.50;1.40;;;16.40;1.00;;;;;;5035375;28;20417;-64
2023/09/26 08:38:50;;;;;;;1.10;1.00;;;16.40;1.00;;;;;;5035301;28;20041;-64
2023/09/26 08:41:17;;;;;;;1.25;1.15;;;16.50;1.00;;;;;;5017395;28;20051;-64
2023/09/26 08:43:43;;;;;;;1.67;1.10;;;16.50;1.00;;;;;;5035045;28;20124;-64
2023/09/26 08:46:09;;;;;;;1.60;1.33;;;16.60;1.00;;;;;;5034963;28;20378;-66
2023/09/26 08:48:35;;;;;;;1.77;1.30;;;16.50;1.00;;;;;;5035221;28;20117;-68
2023/09/26 08:51:01;;;;;;;1.60;1.27;;;17.00;1.00;;;;;;5034894;28;20464;-68
2023/09/26 08:53:27;;;;;;;1.45;1.10;;;16.60;1.00;;;;;;5033791;28;20087;-67
2023/09/26 08:55:54;;;;;;;1.42;1.33;;;16.60;1.00;;;;;;5034986;28;20469;-67
2023/09/26 08:58:20;;;;;;;1.58;1.48;;;16.60;1.00;;;;;;5017079;28;20049;-67
2023/09/26 09:00:48;;;;;;;1.50;1.40;;;16.60;1.00;;;;;;5034946;28;20052;-67
2023/09/26 09:03:14;;;;;;;1.35;1.27;;;16.60;1.00;;;;;;5034930;28;20512;-67
2023/09/26 09:05:40;;;;;;;1.50;1.30;;;16.60;1.00;;;;;;5034837;28;20037;-67
2023/09/26 09:08:07;;;;;;;2.03;1.13;;;16.70;1.00;;;;;;5034757;28;20045;-67
2023/09/26 09:10:50;;;;;;;1.40;1.17;;;16.80;1.00;;;;;;5017096;28;20045;-67
2023/09/26 09:13:27;;;;;;;1.10;1.00;;;16.80;1.00;;;;;;5034781;28;20432;-67
2023/09/26 09:16:05;;;;;;;1.55;1.45;;;16.90;1.00;;;;;;5034304;28;20099;-67
2023/09/26 09:18:31;;;;;;;1.38;1.27;;;17.30;1.00;;;;;;5034316;28;20057;-67
2023/09/26 09:20:57;;;;;;;1.40;1.30;;;17.20;1.00;;;;;;5034591;28;20112;-69
2023/09/26 09:23:22;;;;;;;1.60;1.35;;;17.20;1.00;;;;;;5034656;28;20032;-67
2023/09/26 09:25:50;;;;;;;1.25;1.10;;;17.10;1.00;;;;;;5034583;28;20052;-67
2023/09/26 09:28:22;;;;;;;1.70;1.48;;;17.50;1.00;;;;;;5034409;28;20496;-67
2023/09/26 09:30:50;;;;;;;1.33;1.23;;;17.50;1.00;;;;;;5034634;28;20443;-67
2023/09/26 09:33:16;;;;;;;1.20;1.10;;;17.30;1.00;;;;;;5034558;28;20045;-67
2023/09/26 09:35:42;;;;;;;1.80;1.35;;;;;;;;;;5034518;28;20042;-69
2023/09/26 09:38:12;;;;;;;1.02;1.00;;;17.50;1.00;;;;;;5034465;28;20045;-64
2023/09/26 09:40:38;;;;;;;4.10;1.70;;;17.60;1.00;;;;;;5034566;28;20037;-64
2023/09/26 09:43:04;;;;;;;1.30;1.20;;;17.70;1.00;;;;;;5034388;28;20501;-64
2023/09/26 09:45:34;;;;;;;1.67;1.08;;;17.80;1.00;;;;;;5016649;28;20066;-64
2023/09/26 09:48:02;;;;;;;0.93;0.93;;;18.00;99.90;;;;;;5034228;28;20126;-63
2023/09/26 09:50:30;;;;;;;1.33;1.23;;;18.20;99.90;;;;;;5033869;28;20039;-64
2023/09/26 09:53:01;;;;;;;1.25;1.15;;;18.40;99.90;;;;;;5033976;28;20049;-64
2023/09/26 09:55:38;;;;;;;1.23;1.00;;;18.30;99.90;;;;;;5034143;28;20040;-64
2023/09/26 09:58:08;;;;;;;1.27;1.17;;;18.50;99.90;;;;;;5033798;28;20041;-64
2023/09/26 10:00:36;;;;;;;1.15;1.05;;;18.50;99.90;;;;;;5034022;28;20073;-64
2023/09/26 10:03:04;;;;;;;1.52;1.10;;;18.60;99.90;;;;;;5033963;28;20124;-64
2023/09/26 10:05:31;;;;;;;1.30;1.20;;;18.70;99.90;;;;;;5033310;28;20037;-64
2023/09/26 10:07:58;;;;;;;1.30;1.20;;;18.70;99.90;;;;;;5033858;28;20034;-64
2023/09/26 10:10:24;;;;;;;1.05;0.95;;;19.10;99.90;;;;;;5033818;28;20037;-64
2023/09/26 10:12:51;;;;;;;2.50;1.58;;;18.90;1.00;;;;;;5033730;28;20467;-65
2023/09/26 10:15:17;;;;;;;1.33;1.23;;;19.70;1.00;;;;;;5033759;28;20041;-64
2023/09/26 10:17:48;;;;;;;1.40;1.30;;;19.00;1.00;;;;;;5033184;28;20103;-64
2023/09/26 10:20:15;;;;;;;2.22;1.35;;;19.10;99.90;;;;;;5033249;28;20048;-64
2023/09/26 10:22:43;;;;;;;3.38;1.42;;;19.50;99.90;;;;;;5033624;28;20041;-64
2023/09/26 10:25:16;;;;;;;1.45;1.25;;;19.10;99.90;;;;;;5033419;28;20076;-63
2023/09/26 10:27:43;;;;;;;1.20;1.05;;;18.90;16.60;;;;;;5033491;28;20094;-63
2023/09/26 10:30:12;;;;;;;1.05;0.98;;;18.90;99.90;;;;;;5033295;28;20041;-63
2023/09/26 10:32:41;;;;;;;1.45;1.10;;;18.80;99.90;;;;;;5033332;28;20033;-63
2023/09/26 10:35:13;;;;;;;1.42;1.33;;;18.90;99.90;;;;;;5033305;28;20094;-63
2023/09/26 10:37:39;;;;;;;1.50;1.20;;;18.90;99.90;;;;;;5033191;28;20056;-63
2023/09/26 10:40:10;;;;;;;1.27;1.00;;;18.90;1.00;;;;;;5015338;28;20037;-62
2023/09/26 10:42:44;;;;;;;1.30;1.20;;;18.90;1.00;;;;;;5033250;28;20481;-63
2023/09/26 10:45:10;;;;;;;0.80;0.80;;;18.80;91.20;;;;;;5032891;28;20037;-63
2023/09/26 10:47:38;;;;;;;1.42;1.25;;;19.00;1.00;;;;;;5033297;28;20029;-61
2023/09/26 10:50:13;;;;;;;1.30;1.20;;;18.80;99.90;;;;;;5032905;28;20123;-61
2023/09/26 10:52:49;;;;;;;1.60;1.25;;;18.90;1.00;;;;;;5033122;28;20116;-61
2023/09/26 10:55:20;;;;;;;1.40;1.30;;;19.00;99.90;;;;;;5033160;28;20060;-60
2023/09/26 10:57:46;;;;;;;1.50;1.38;;;18.90;99.90;;;;;;5033046;28;20054;-61
2023/09/26 11:00:14;;;;;;;1.17;1.10;;;18.90;99.90;;;;;;5032804;28;20039;-62
2023/09/26 11:02:42;;;;;;;1.40;1.30;;;18.90;99.90;;;;;;5033150;28;20037;-62
2023/09/26 11:05:08;;;;;;;1.13;1.10;;;19.00;95.70;;;;;;5033051;28;20408;-62
2023/09/26 11:07:35;;;;;;;1.40;1.30;;;19.00;99.90;;;;;;5033125;28;20056;-62
2023/09/26 11:10:03;;;;;;;1.33;1.23;;;19.10;99.90;;;;;;5032945;28;20096;-62
2023/09/26 11:12:30;;;;;;;1.00;1.00;;;19.10;99.90;;;;;;5032964;28;20119;-62
2023/09/26 11:14:55;;;;;;;1.35;1.25;;;19.20;99.90;;;;;;5033059;28;20095;-62
2023/09/26 11:17:23;;;;;;;1.10;1.00;;;19.30;99.90;;;;;;5033869;28;20436;-64
2023/09/26 11:19:50;;;;;;;2.63;1.35;;;19.30;99.90;;;;;;5036949;28;20457;-62
2023/09/26 11:22:16;;;;;;;0.98;0.90;;;19.40;1.00;;;;;;5036935;28;20084;-62
2023/09/26 11:24:41;;;;;;;1.23;1.05;;;19.50;99.90;;;;;;5036885;28;20065;-62
2023/09/26 11:27:08;;;;;;;1.42;1.33;;;19.60;99.90;;;;;;5036795;28;20048;-63
2023/09/26 11:29:35;;;;;;;1.48;1.20;;;20.10;99.90;;;;;;5035593;28;20373;-63
2023/09/26 11:32:03;;;;;;;1.10;1.08;;;19.90;1.00;;;;;;5036369;28;20037;-63
2023/09/26 11:34:29;;;;;;;2.10;1.42;;;19.50;99.90;;;;;;5036400;28;20037;-63
2023/09/26 11:36:55;;;;;;;1.17;1.13;;;19.40;99.90;;;;;;5036587;28;20049;-62
2023/09/26 11:39:23;;;;;;;0.85;0.85;;;19.60;1.00;;;;;;5036587;28;20029;-62
2023/09/26 11:42:08;;;;;;;1.25;1.15;;;19.70;29.50;;;;;;5036538;28;20038;-62
2023/09/26 11:44:34;;;;;;;1.10;1.00;;;19.70;99.90;;;;;;5036505;28;20041;-63
2023/09/26 11:47:02;;;;;;;1.20;0.98;;;19.70;99.90;;;;;;5036373;28;20440;-63
2023/09/26 11:49:29;;;;;;;1.20;1.10;;;19.90;99.90;;;;;;5036280;28;20120;-63
2023/09/26 11:51:55;;;;;;;1.25;1.15;;;19.80;99.90;;;;;;5036370;28;20546;-63
2023/09/26 11:54:22;;;;;;;1.48;1.02;;;19.80;99.90;;;;;;5036303;28;20112;-63
2023/09/26 11:56:48;;;;;;;1.70;1.20;;;19.80;99.90;;;;;;5036291;28;20423;-63
2023/09/26 11:59:15;;;;;;;1.35;1.02;;;19.80;99.90;;;;;;5035812;28;20175;-64
2023/09/26 12:01:41;;;;;;;1.30;1.20;;;19.90;99.30;;;;;;5036155;28;20045;-64
2023/09/26 12:04:10;;;;;;;1.30;1.17;;;19.90;1.00;;;;;;5036088;28;20052;-64
2023/09/26 12:06:36;;;;;;;1.90;1.02;;;19.90;1.00;;;;;;5036038;28;20029;-64
2023/09/26 12:09:05;;;;;;;1.60;1.50;;;19.90;1.00;;;;;;5035778;28;20052;-63
2023/09/26 12:11:31;;;;;;;1.42;1.08;;;19.80;1.00;;;;;;5035991;28;20119;-63
2023/09/26 12:13:56;;;;;;;1.75;1.13;;;19.90;38.20;;;;;;5035958;28;20521;-63
2023/09/26 12:16:22;;;;;;;1.00;1.00;;;20.00;29.00;;;;;;5014368;28;20060;-63
2023/09/26 12:18:49;;;;;;;5.07;1.10;;;20.00;1.00;;;;;;5015882;28;20524;-64
2023/09/26 12:21:15;;;;;;;1.08;0.93;;;20.00;1.00;;;;;;5016136;28;20573;-64
2023/09/26 12:23:41;;;;;;;0.95;0.95;;;20.10;26.00;;;;;;5016080;28;20065;-64
2023/09/26 12:26:06;;;;;;;1.33;1.23;;;20.30;22.20;;;;;;5016029;28;20041;-64
2023/09/26 12:28:32;;;;;;;1.00;1.00;;;20.10;93.50;;;;;;5015353;28;20402;-64
2023/09/26 12:30:58;;;;;;;1.10;1.10;;;20.10;1.00;;;;;;5015604;28;20053;-64
2023/09/26 12:33:23;;;;;;;1.25;1.15;;;20.10;96.20;;;;;;5015830;28;20038;-64
2023/09/26 12:35:50;;;;;;;1.08;1.00;;;19.80;99.90;;;;;;5015753;28;20037;-64
2023/09/26 12:38:16;;;;;;;1.30;1.08;;;20.10;1.00;;;;;;5015643;28;20053;-64
2023/09/26 12:40:41;;;;;;;0.98;0.98;;;20.00;1.00;;;;;;5015766;28;20427;-64
2023/09/26 12:43:07;;;;;;;1.20;1.10;;;20.10;1.00;;;;;;5015663;28;20037;-63
2023/09/26 12:45:33;;;;;;;1.17;1.02;;;20.10;99.90;;;;;;5015255;28;20029;-64
2023/09/26 12:47:58;;;;;;;1.00;0.90;;;20.00;1.00;;;;;;5015282;28;20046;-64